createdAt,value
2022-11-15T00:00:22.591Z,94.00
2022-11-15T00:03:07.937Z,94.00
2022-11-15T00:05:53.951Z,94.00
2022-11-15T00:08:39.581Z,94.00
2022-11-15T00:11:24.931Z,94.10
2022-11-15T00:14:10.716Z,94.10
2022-11-15T00:16:56.157Z,94.10
2022-11-15T00:19:41.649Z,94.10
2022-11-15T00:22:33.108Z,94.10
2022-11-15T00:25:19.794Z,94.10
2022-11-15T00:28:05.457Z,94.10
2022-11-15T00:30:50.872Z,94.20
2022-11-15T00:33:36.211Z,94.20
2022-11-15T00:36:21.897Z,94.20
2022-11-15T00:39:07.383Z,94.20
2022-11-15T00:41:52.967Z,94.20
2022-11-15T00:44:38.502Z,94.20
2022-11-15T00:47:26.629Z,94.20
2022-11-15T00:50:15.152Z,94.30
2022-11-15T00:53:01.125Z,94.30
2022-11-15T00:55:47.626Z,94.30
2022-11-15T00:58:33.519Z,94.30
2022-11-15T01:01:19.378Z,94.30
2022-11-15T01:04:05.111Z,94.30
2022-11-15T01:06:50.776Z,94.40
2022-11-15T01:09:36.160Z,94.40
2022-11-15T01:12:21.611Z,94.40
2022-11-15T01:15:07.503Z,94.40
2022-11-15T01:17:53.014Z,94.40
2022-11-15T01:20:43.018Z,94.40
2022-11-15T01:23:29.029Z,94.40
2022-11-15T01:26:16.322Z,94.50
2022-11-15T01:29:01.625Z,94.50
2022-11-15T01:31:47.049Z,94.50
2022-11-15T01:34:32.342Z,94.50
2022-11-15T01:37:17.923Z,94.50
2022-11-15T01:40:04.584Z,94.50
2022-11-15T01:42:50.193Z,94.50
2022-11-15T01:45:35.754Z,94.50
2022-11-15T01:48:21.874Z,94.50
2022-11-15T01:51:14.621Z,94.60
2022-11-15T01:54:07.334Z,94.60
2022-11-15T01:57:13.802Z,94.60
2022-11-15T02:00:04.272Z,94.60
2022-11-15T02:02:49.960Z,94.60
2022-11-15T02:05:37.323Z,94.50
2022-11-15T02:08:23.107Z,94.50
2022-11-15T02:11:13.008Z,94.60
2022-11-15T02:14:00.673Z,94.60
2022-11-15T02:17:01.583Z,94.60
2022-11-15T02:20:18.304Z,94.60
2022-11-15T02:23:34.612Z,94.60
2022-11-15T02:26:45.267Z,94.60
2022-11-15T02:29:40.802Z,94.60
2022-11-15T02:32:43.975Z,94.60
2022-11-15T02:35:47.339Z,94.60
2022-11-15T02:38:57.584Z,94.60
2022-11-15T02:42:32.207Z,94.60
2022-11-15T02:45:25.543Z,94.60
2022-11-15T02:48:13.107Z,94.60
2022-11-15T02:51:00.373Z,94.60
2022-11-15T02:53:45.770Z,94.60
2022-11-15T02:56:31.296Z,94.70
2022-11-15T02:59:51.904Z,94.70
2022-11-15T03:02:46.850Z,94.70
2022-11-15T03:06:03.467Z,94.70
2022-11-15T03:09:23.410Z,94.70
2022-11-15T03:12:32.687Z,94.60
2022-11-15T03:15:45.175Z,94.60
2022-11-15T03:18:36.746Z,94.60
2022-11-15T03:21:24.901Z,94.70
2022-11-15T03:24:12.411Z,94.70
2022-11-15T03:27:01.424Z,94.70
2022-11-15T03:29:51.401Z,94.70
2022-11-15T03:32:46.161Z,94.70
2022-11-15T03:35:38.319Z,94.70
2022-11-15T03:38:26.715Z,94.70
2022-11-15T03:41:21.287Z,94.70
2022-11-15T03:44:32.074Z,94.80
2022-11-15T03:47:35.773Z,94.70
2022-11-15T03:50:30.334Z,94.70
2022-11-15T03:53:16.011Z,94.70
2022-11-15T03:56:01.200Z,94.80
2022-11-15T03:58:46.762Z,94.80
2022-11-15T04:01:32.064Z,94.80
2022-11-15T04:04:17.754Z,94.80
2022-11-15T04:07:03.329Z,95.10
2022-11-15T04:10:04.065Z,94.80
2022-11-15T04:12:49.637Z,94.80
2022-11-15T04:15:35.879Z,94.80
2022-11-15T04:18:21.689Z,94.80
2022-11-15T04:21:27.176Z,95.10
2022-11-15T04:24:15.290Z,94.80
2022-11-15T04:27:00.802Z,94.80
2022-11-15T04:29:46.143Z,94.90
2022-11-15T04:32:31.476Z,94.80
2022-11-15T04:35:17.127Z,94.80
2022-11-15T04:38:04.485Z,94.80
2022-11-15T04:40:50.047Z,94.80
2022-11-15T04:43:35.775Z,94.80
2022-11-15T04:46:21.863Z,94.90
2022-11-15T04:49:10.385Z,94.90
2022-11-15T04:51:55.788Z,95.00
2022-11-15T04:54:43.214Z,95.00
2022-11-15T04:57:28.649Z,95.00
2022-11-15T05:00:16.198Z,95.00
2022-11-15T05:03:20.004Z,95.00
2022-11-15T05:06:06.891Z,95.00
2022-11-15T05:08:54.701Z,95.10
2022-11-15T05:11:40.700Z,95.10
2022-11-15T05:14:26.345Z,95.10
2022-11-15T05:17:11.748Z,95.10
2022-11-15T05:19:57.565Z,95.10
2022-11-15T05:22:43.024Z,95.10
2022-11-15T05:25:28.640Z,95.10
2022-11-15T05:28:14.205Z,95.10
2022-11-15T05:31:04.015Z,95.20
2022-11-15T05:33:54.916Z,95.20
2022-11-15T05:36:43.791Z,95.20
2022-11-15T05:39:29.013Z,95.20
2022-11-15T05:42:16.116Z,95.20
2022-11-15T05:45:04.941Z,95.20
2022-11-15T05:47:52.358Z,95.20
2022-11-15T05:50:40.410Z,95.20
2022-11-15T05:53:26.968Z,95.20
2022-11-15T05:56:13.509Z,95.30
2022-11-15T05:59:00.348Z,95.30
2022-11-15T06:01:46.351Z,95.30
2022-11-15T06:04:31.861Z,95.30
2022-11-15T06:07:17.256Z,95.30
2022-11-15T06:10:03.199Z,95.30
2022-11-15T06:12:56.759Z,95.30
2022-11-15T06:15:42.470Z,95.30
2022-11-15T06:18:28.321Z,95.30
2022-11-15T06:21:13.696Z,95.30
2022-11-15T06:23:59.291Z,95.40
2022-11-15T06:26:44.710Z,95.40
2022-11-15T06:29:30.047Z,95.40
2022-11-15T06:32:15.323Z,95.40
2022-11-15T06:35:00.694Z,95.40
2022-11-15T06:37:47.590Z,95.40
2022-11-15T06:40:35.845Z,95.40
2022-11-15T06:43:21.325Z,95.40
2022-11-15T06:46:07.377Z,95.40
2022-11-15T06:48:53.755Z,95.50
2022-11-15T06:51:39.459Z,95.50
2022-11-15T06:54:24.934Z,95.50
2022-11-15T06:57:10.652Z,95.50
2022-11-15T06:59:56.052Z,95.50
2022-11-15T07:02:41.215Z,95.50
2022-11-15T07:05:26.904Z,95.60
2022-11-15T07:08:12.170Z,95.50
2022-11-15T07:11:02.933Z,95.50
2022-11-15T07:13:48.228Z,95.60
2022-11-15T07:16:33.599Z,95.60
2022-11-15T07:19:18.765Z,95.60
2022-11-15T07:22:04.437Z,95.60
2022-11-15T07:24:49.840Z,95.50
2022-11-15T07:27:36.221Z,95.50
2022-11-15T07:30:21.789Z,95.50
2022-11-15T07:33:07.328Z,95.50
2022-11-15T07:35:52.655Z,95.50
2022-11-15T07:38:42.809Z,95.60
2022-11-15T07:41:28.979Z,95.60
2022-11-15T07:44:14.788Z,95.60
2022-11-15T07:47:00.253Z,95.60
2022-11-15T07:49:47.124Z,95.60
2022-11-15T07:52:32.439Z,95.60
2022-11-15T07:55:17.629Z,95.60
2022-11-15T07:58:05.767Z,95.70
2022-11-15T08:00:51.376Z,95.70
2022-11-15T08:03:37.506Z,95.70
2022-11-15T08:06:22.989Z,95.70
2022-11-15T08:09:08.252Z,95.70
2022-11-15T08:11:53.960Z,95.70
2022-11-15T08:14:39.672Z,95.70
2022-11-15T08:17:26.235Z,95.70
2022-11-15T08:20:12.127Z,95.70
2022-11-15T08:22:59.055Z,95.70
2022-11-15T08:25:44.812Z,95.70
2022-11-15T08:28:31.553Z,95.70
2022-11-15T08:31:19.213Z,95.80
2022-11-15T08:34:07.123Z,95.80
2022-11-15T08:36:52.589Z,95.80
2022-11-15T08:39:39.043Z,95.80
2022-11-15T08:42:24.438Z,95.80
2022-11-15T08:45:10.702Z,95.80
2022-11-15T08:47:56.453Z,95.70
2022-11-15T08:50:42.143Z,95.70
2022-11-15T08:53:29.610Z,95.80
2022-11-15T08:56:16.339Z,95.80
2022-11-15T08:59:01.846Z,95.80
2022-11-15T09:01:47.727Z,95.80
2022-11-15T09:04:33.660Z,95.70
2022-11-15T09:07:19.519Z,96.00
2022-11-15T09:10:05.552Z,95.70
2022-11-15T09:12:51.549Z,95.70
2022-11-15T09:15:37.218Z,95.70
2022-11-15T09:18:24.132Z,96.00
2022-11-15T09:21:10.202Z,95.70
2022-11-15T09:23:55.788Z,95.70
2022-11-15T09:26:41.240Z,95.80
2022-11-15T09:29:27.140Z,95.80
2022-11-15T09:32:12.852Z,95.80
2022-11-15T09:34:58.960Z,95.80
2022-11-15T09:37:44.657Z,96.10
2022-11-15T09:40:33.153Z,95.80
2022-11-15T09:43:35.873Z,95.80
2022-11-15T09:46:34.683Z,95.80
2022-11-15T09:49:20.153Z,95.90
2022-11-15T09:52:12.086Z,95.90
2022-11-15T09:54:58.190Z,95.80
2022-11-15T09:57:34.627Z,95.80
2022-11-15T10:00:50.072Z,95.80
2022-11-15T10:03:36.223Z,95.70
2022-11-15T10:06:06.384Z,95.70
2022-11-15T10:08:47.667Z,95.60
2022-11-15T10:11:44.116Z,95.60
2022-11-15T10:14:19.702Z,95.50
2022-11-15T10:16:55.363Z,95.50
2022-11-15T10:19:40.515Z,95.40
2022-11-15T10:22:22.571Z,95.40
2022-11-15T10:24:51.534Z,95.50
2022-11-15T10:27:20.130Z,95.50
2022-11-15T10:29:49.808Z,95.50
2022-11-15T10:32:24.704Z,95.50
2022-11-15T10:34:54.181Z,95.50
2022-11-15T10:37:31.997Z,95.50
2022-11-15T10:40:17.520Z,95.40
2022-11-15T10:42:44.626Z,95.30
2022-11-15T10:45:32.639Z,95.40
2022-11-15T10:48:14.919Z,95.40
2022-11-15T10:50:46.618Z,95.30
2022-11-15T10:53:19.653Z,95.40
2022-11-15T10:55:52.539Z,95.30
2022-11-15T10:58:59.483Z,95.30
2022-11-15T11:01:30.604Z,95.30
2022-11-15T11:04:08.371Z,95.40
2022-11-15T11:06:57.275Z,95.40
2022-11-15T11:09:37.755Z,95.30
2022-11-15T11:12:06.855Z,95.40
2022-11-15T11:14:35.766Z,95.30
2022-11-15T11:17:15.144Z,95.30
2022-11-15T11:19:50.685Z,95.30
2022-11-15T11:22:47.164Z,95.40
2022-11-15T11:25:37.194Z,95.30
2022-11-15T11:28:04.184Z,95.30
2022-11-15T11:30:47.311Z,95.20
2022-11-15T11:33:22.739Z,95.20
2022-11-15T11:36:22.959Z,95.20
2022-11-15T11:38:59.302Z,95.20
2022-11-15T11:41:48.974Z,95.20
2022-11-15T11:44:38.017Z,95.10
2022-11-15T11:47:23.968Z,94.90
2022-11-15T11:50:15.854Z,94.90
2022-11-15T11:52:55.325Z,94.90
2022-11-15T11:55:27.227Z,95.10
2022-11-15T11:57:59.470Z,94.80
2022-11-15T12:00:32.344Z,94.70
2022-11-15T12:03:17.575Z,94.60
2022-11-15T12:05:49.668Z,94.60
2022-11-15T12:08:32.067Z,94.50
2022-11-15T12:11:14.906Z,94.40
2022-11-15T12:13:43.511Z,94.30
2022-11-15T12:16:19.424Z,94.20
2022-11-15T12:18:51.777Z,94.20
2022-11-15T12:21:28.740Z,94.10
2022-11-15T12:24:02.324Z,94.00
2022-11-15T12:26:35.993Z,94.00
2022-11-15T12:29:12.314Z,94.10
2022-11-15T12:31:43.212Z,94.10
2022-11-15T12:34:38.996Z,94.10
2022-11-15T12:37:44.084Z,94.00
2022-11-15T12:40:14.102Z,94.00
2022-11-15T12:42:57.787Z,94.00
2022-11-15T12:45:35.137Z,93.90
2022-11-15T12:48:17.369Z,93.90
2022-11-15T12:50:57.169Z,93.80
2022-11-15T12:53:24.612Z,93.70
2022-11-15T12:56:13.237Z,93.70
2022-11-15T12:58:59.948Z,93.60
2022-11-15T13:01:38.949Z,93.60
2022-11-15T13:04:15.609Z,93.60
2022-11-15T13:06:45.916Z,93.50
2022-11-15T13:09:37.475Z,93.50
2022-11-15T13:12:14.681Z,93.30
2022-11-15T13:15:00.166Z,93.40
2022-11-15T13:17:34.762Z,93.40
2022-11-15T13:20:08.053Z,93.40
2022-11-15T13:22:53.431Z,93.30
2022-11-15T13:25:48.829Z,93.30
2022-11-15T13:28:15.784Z,93.30
2022-11-15T13:30:53.170Z,93.30
2022-11-15T13:33:24.672Z,93.20
2022-11-15T13:35:55.056Z,93.20
2022-11-15T13:38:34.120Z,93.20
2022-11-15T13:41:22.027Z,93.10
2022-11-15T13:43:50.772Z,93.10
2022-11-15T13:46:19.196Z,93.10
2022-11-15T13:48:48.466Z,93.10
2022-11-15T13:51:33.823Z,93.10
2022-11-15T13:54:03.690Z,93.00
2022-11-15T13:56:32.582Z,93.00
2022-11-15T13:58:59.644Z,92.90
2022-11-15T14:01:31.941Z,92.90
2022-11-15T14:04:01.542Z,92.90
2022-11-15T14:06:30.806Z,92.80
2022-11-15T14:09:16.471Z,92.80
2022-11-15T14:11:57.375Z,92.80
2022-11-15T14:14:26.556Z,92.70
2022-11-15T14:16:57.510Z,92.80
2022-11-15T14:19:24.327Z,92.80
2022-11-15T14:22:26.581Z,92.80
2022-11-15T14:25:16.158Z,92.80
2022-11-15T14:27:44.795Z,92.70
2022-11-15T14:30:18.332Z,92.80
2022-11-15T14:32:48.452Z,92.70
2022-11-15T14:35:21.860Z,92.70
2022-11-15T14:37:49.497Z,92.60
2022-11-15T14:40:18.964Z,92.60
2022-11-15T14:42:47.202Z,92.60
2022-11-15T14:45:16.948Z,92.50
2022-11-15T14:47:46.689Z,92.80
2022-11-15T14:50:19.786Z,92.50
2022-11-15T14:52:54.709Z,92.40
2022-11-15T14:55:29.421Z,92.40
2022-11-15T14:58:08.910Z,92.40
2022-11-15T15:00:40.451Z,92.40
2022-11-15T15:03:08.156Z,92.40
2022-11-15T15:05:43.790Z,92.30
2022-11-15T15:08:11.488Z,92.30
2022-11-15T15:11:02.326Z,92.30
2022-11-15T15:13:31.387Z,92.20
2022-11-15T15:16:00.827Z,92.20
2022-11-15T15:18:27.732Z,92.20
2022-11-15T15:21:03.376Z,92.20
2022-11-15T15:23:32.043Z,92.10
2022-11-15T15:25:59.312Z,92.10
2022-11-15T15:28:30.017Z,92.10
2022-11-15T15:31:01.165Z,92.10
2022-11-15T15:33:28.339Z,92.00
2022-11-15T15:35:55.310Z,92.00
2022-11-15T15:38:24.767Z,91.90
2022-11-15T15:40:52.007Z,91.90
2022-11-15T15:43:22.041Z,91.90
2022-11-15T15:45:49.787Z,92.10
2022-11-15T15:48:18.414Z,91.80
2022-11-15T15:50:46.106Z,91.80
2022-11-15T15:53:14.067Z,91.80
2022-11-15T15:55:41.340Z,91.80
2022-11-15T15:58:09.812Z,91.80
2022-11-15T16:00:38.046Z,91.80
2022-11-15T16:03:05.136Z,91.80
2022-11-15T16:05:32.244Z,91.70
2022-11-15T16:07:59.680Z,91.70
2022-11-15T16:13:21.764Z,91.70
2022-11-15T16:15:56.090Z,91.70
2022-11-15T16:18:27.525Z,91.60
2022-11-15T16:20:57.734Z,91.60
2022-11-15T16:23:25.628Z,91.70
2022-11-15T16:25:56.610Z,91.70
2022-11-15T16:28:40.592Z,91.60
2022-11-15T16:31:19.164Z,91.60
2022-11-15T16:33:47.096Z,91.70
2022-11-15T16:36:28.672Z,91.70
2022-11-15T16:38:57.280Z,91.60
2022-11-15T16:41:24.253Z,91.60
2022-11-15T16:43:51.891Z,91.60
2022-11-15T16:46:27.246Z,91.60
2022-11-15T16:48:54.687Z,91.60
2022-11-15T16:51:24.152Z,91.60
2022-11-15T16:53:51.626Z,91.60
2022-11-15T16:56:30.214Z,91.60
2022-11-15T16:58:59.203Z,91.60
2022-11-15T17:01:28.797Z,91.60
2022-11-15T17:03:56.433Z,91.60
2022-11-15T17:06:24.524Z,91.50
2022-11-15T17:08:51.810Z,91.50
2022-11-15T17:11:23.236Z,91.50
2022-11-15T17:13:50.522Z,91.50
2022-11-15T17:16:18.970Z,91.50
2022-11-15T17:18:51.452Z,91.50
2022-11-15T17:21:21.049Z,91.50
2022-11-15T17:23:51.892Z,91.50
2022-11-15T17:26:39.278Z,91.50
2022-11-15T17:29:08.116Z,91.50
2022-11-15T17:31:36.254Z,91.50
2022-11-15T17:34:04.678Z,91.50
2022-11-15T17:36:32.290Z,91.50
2022-11-15T17:39:00.075Z,91.50
2022-11-15T17:41:28.256Z,91.50
2022-11-15T17:43:58.419Z,91.50
2022-11-15T17:46:26.314Z,91.50
2022-11-15T17:48:56.325Z,91.60
2022-11-15T17:51:26.870Z,91.60
2022-11-15T17:53:56.998Z,91.60
2022-11-15T17:56:26.869Z,91.60
2022-11-15T17:58:59.403Z,91.70
2022-11-15T18:01:27.638Z,91.70
2022-11-15T18:03:55.979Z,91.70
2022-11-15T18:06:25.082Z,91.80
2022-11-15T18:08:56.351Z,91.80
2022-11-15T18:11:32.719Z,91.80
2022-11-15T18:22:03.407Z,91.80
2022-11-15T18:25:05.654Z,91.90
2022-11-15T18:30:14.924Z,91.90
2022-11-15T18:32:46.457Z,92.00
2022-11-15T18:35:13.900Z,92.10
2022-11-15T18:39:08.314Z,92.10
2022-11-15T18:41:36.445Z,92.20
2022-11-15T18:44:07.494Z,92.20
2022-11-15T18:46:34.551Z,92.30
2022-11-15T18:49:05.187Z,92.30
2022-11-15T18:51:32.450Z,92.40
2022-11-15T18:54:02.097Z,92.50
2022-11-15T18:56:33.854Z,92.50
2022-11-15T18:59:23.300Z,92.50
2022-11-15T19:01:53.850Z,92.60
2022-11-15T19:04:25.021Z,92.70
2022-11-15T19:06:55.151Z,92.70
2022-11-15T19:09:24.162Z,92.80
2022-11-15T19:11:51.787Z,92.80
2022-11-15T19:14:19.827Z,92.80
2022-11-15T19:17:03.069Z,93.10
2022-11-15T19:20:35.385Z,92.90
2022-11-15T19:23:10.273Z,92.90
2022-11-15T19:25:39.713Z,93.00
2022-11-15T19:28:06.587Z,93.00
2022-11-15T19:30:33.871Z,93.00
2022-11-15T19:33:00.975Z,93.10
2022-11-15T19:35:28.005Z,93.10
2022-11-15T19:37:55.103Z,93.20
2022-11-15T19:40:24.564Z,93.20
2022-11-15T19:42:53.719Z,93.30
2022-11-15T19:45:36.911Z,93.30
2022-11-15T19:48:10.243Z,93.30
2022-11-15T19:50:37.737Z,93.40
2022-11-15T19:53:07.597Z,93.40
2022-11-15T19:55:41.356Z,93.40
2022-11-15T19:58:11.617Z,93.50
2022-11-15T20:00:38.927Z,93.50
2022-11-15T20:03:06.169Z,93.50
2022-11-15T20:05:33.494Z,93.50
2022-11-15T20:08:13.085Z,93.50
2022-11-15T20:10:40.266Z,93.60
2022-11-15T20:13:10.399Z,93.60
2022-11-15T20:15:43.817Z,93.60
2022-11-15T20:18:10.704Z,93.60
2022-11-15T20:20:37.763Z,93.70
2022-11-15T20:23:07.723Z,93.70
2022-11-15T20:25:38.135Z,94.00
2022-11-15T20:28:19.815Z,93.80
2022-11-15T20:30:49.861Z,93.80
2022-11-15T20:33:17.870Z,93.90
2022-11-15T20:35:45.104Z,93.90
2022-11-15T20:38:12.459Z,93.90
2022-11-15T20:40:45.132Z,94.00
2022-11-15T20:43:14.560Z,94.00
2022-11-15T20:45:47.560Z,94.10
2022-11-15T20:48:15.083Z,94.10
2022-11-15T20:50:44.049Z,94.10
2022-11-15T20:53:13.409Z,94.20
2022-11-15T20:55:49.570Z,94.20
2022-11-15T20:58:17.551Z,94.30
2022-11-15T21:00:48.210Z,94.30
2022-11-15T21:03:15.263Z,94.30
2022-11-15T21:05:44.518Z,94.40
2022-11-15T21:08:15.514Z,94.40
2022-11-15T21:11:00.900Z,94.40
2022-11-15T21:13:27.982Z,94.50
2022-11-15T21:15:58.063Z,94.50
2022-11-15T21:18:25.584Z,94.50
2022-11-15T21:20:53.797Z,94.60
2022-11-15T21:23:21.303Z,94.60
2022-11-15T21:25:50.463Z,94.60
2022-11-15T21:28:25.974Z,94.70
2022-11-15T21:30:58.162Z,94.70
2022-11-15T21:33:27.458Z,94.70
2022-11-15T21:36:03.522Z,94.80
2022-11-15T21:38:35.548Z,94.80
2022-11-15T21:41:11.331Z,94.80
2022-11-15T21:43:38.555Z,94.80
2022-11-15T21:46:10.791Z,94.80
2022-11-15T21:50:04.991Z,94.90
2022-11-15T21:52:36.764Z,94.90
2022-11-15T21:55:04.148Z,94.90
2022-11-15T21:57:31.143Z,94.90
2022-11-15T22:00:21.036Z,94.90
2022-11-15T22:05:44.540Z,94.90
2022-11-15T22:08:11.624Z,94.90
2022-11-15T22:10:41.132Z,95.00
2022-11-15T22:13:11.368Z,95.00
2022-11-15T22:15:38.334Z,95.00
2022-11-15T22:18:05.827Z,95.00
2022-11-15T22:20:48.763Z,95.10
2022-11-15T22:23:25.089Z,95.10
2022-11-15T22:25:52.779Z,95.10
2022-11-15T22:28:20.705Z,95.10
2022-11-15T22:30:50.415Z,95.10
2022-11-15T22:33:20.944Z,95.20
2022-11-15T22:35:48.186Z,95.20
2022-11-15T22:38:20.253Z,95.20
2022-11-15T22:40:50.886Z,95.20
2022-11-15T22:43:20.366Z,95.20
2022-11-15T22:45:48.995Z,95.20
2022-11-15T22:48:17.769Z,95.30
2022-11-15T22:50:45.317Z,95.30
2022-11-15T22:53:12.449Z,95.30
2022-11-15T22:55:43.488Z,95.30
2022-11-15T22:58:10.613Z,95.30
2022-11-15T23:00:37.536Z,95.40
2022-11-15T23:03:04.651Z,95.30
2022-11-15T23:05:31.523Z,95.40
2022-11-15T23:07:58.565Z,95.40
2022-11-15T23:10:44.055Z,95.40
2022-11-15T23:13:17.260Z,95.40
2022-11-15T23:16:05.042Z,95.40
2022-11-15T23:18:43.521Z,95.50
2022-11-15T23:21:10.507Z,95.50
2022-11-15T23:23:37.498Z,95.50
2022-11-15T23:26:05.214Z,95.50
2022-11-15T23:28:35.987Z,95.50
2022-11-15T23:31:24.359Z,95.50
2022-11-15T23:33:59.996Z,95.50
2022-11-15T23:36:28.290Z,95.60
2022-11-15T23:38:55.726Z,95.60
2022-11-15T23:41:36.078Z,95.60
2022-11-15T23:44:03.274Z,95.60
2022-11-15T23:46:30.460Z,95.60
2022-11-15T23:48:57.712Z,95.60
2022-11-15T23:51:24.992Z,95.60
2022-11-15T23:53:52.087Z,95.70
2022-11-15T23:56:22.917Z,95.70
2022-11-15T23:58:50.532Z,95.70
